Time;durP1;ratioP1;P1;durP2;ratioP2;P2;SDS_P1;SDS_P2;PMS_P1;PMS_P2;Temp;Humidity;BMP_temperature;BMP_pressure;BME280_temperature;BME280_humidity;BME280_pressure;Samples;Min_cycle;Max_cycle;Signal;HPM_P1;HPM_P2
2023/05/07 00:00:42;;;;;;;;;;;;;;;13.67;100.00;101635.38;5026852;28;19924;-45
2023/05/07 00:03:07;;;;;;;;;;;;;;;13.70;100.00;101637.13;5025889;28;20292;-44
2023/05/07 00:05:32;;;;;;;;;;;;;;;13.72;100.00;101632.03;5025866;28;20387;-45
2023/05/07 00:07:58;;;;;;;;;;;;;;;13.75;100.00;101639.88;5025241;28;19944;-43
2023/05/07 00:10:23;;;;;;;;;;;;;;;13.76;100.00;101639.03;5018521;28;19922;-46
2023/05/07 00:12:48;;;;;;;;;;;;;;;13.79;100.00;101634.81;5026083;28;20418;-45
2023/05/07 00:15:13;;;;;;;;;;;;;;;13.79;100.00;101636.53;5023010;28;19921;-45
2023/05/07 00:17:39;;;;;;;;;;;;;;;13.78;100.00;101627.91;5021323;28;19929;-44
2023/05/07 00:20:04;;;;;;;;;;;;;;;13.81;100.00;101629.69;5024618;28;19927;-44
2023/05/07 00:22:30;;;;;;;;;;;;;;;13.80;100.00;101622.78;5022520;28;20329;-46
2023/05/07 00:24:56;;;;;;;;;;;;;;;13.81;100.00;101620.22;5026899;28;19921;-46
2023/05/07 00:27:21;;;;;;;;;;;;;;;13.79;100.00;101624.50;5023215;28;19928;-46
2023/05/07 00:29:47;;;;;;;;;;;;;;;13.80;100.00;101621.06;5023083;28;19929;-48
2023/05/07 00:32:12;;;;;;;;;;;;;;;13.81;100.00;101616.75;5025808;28;19929;-45
2023/05/07 00:34:39;;;;;;;;;;;;;;;13.82;100.00;101621.09;5021604;28;19925;-46
2023/05/07 00:37:04;;;;;;;;;;;;;;;13.81;100.00;101617.63;5024505;28;19921;-46
2023/05/07 00:39:29;;;;;;;;;;;;;;;13.80;100.00;101620.19;5022371;28;19928;-45
2023/05/07 00:41:55;;;;;;;;;;;;;;;13.80;100.00;101615.88;5020187;28;20000;-49
2023/05/07 00:44:20;;;;;;;;;;;;;;;13.78;100.00;101617.56;5025560;28;19929;-44
2023/05/07 00:46:48;;;;;;;;;;;;;;;13.81;100.00;101611.59;5025180;28;20354;-48
2023/05/07 00:49:14;;;;;;;;;;;;;;;13.79;100.00;101608.97;5024552;28;19923;-46
2023/05/07 00:51:39;;;;;;;;;;;;;;;13.79;100.00;101606.41;5025653;28;19925;-43
2023/05/07 00:54:04;;;;;;;;;;;;;;;13.80;100.00;101605.56;5025535;28;19932;-45
2023/05/07 00:56:31;;;;;;;;;;;;;;;13.81;100.00;101598.66;5025304;28;19921;-44
2023/05/07 00:58:56;;;;;;;;;;;;;;;13.83;100.00;101602.16;5023786;28;19936;-44
2023/05/07 01:01:21;;;;;;;;;;;;;;;13.85;100.00;101608.28;5022236;28;19921;-45
2023/05/07 01:03:46;;;;;;;;;;;;;;;13.84;100.00;101602.22;5025029;28;20398;-45
2023/05/07 01:06:13;;;;;;;;;;;;;;;13.85;100.00;101596.22;5025568;28;20267;-46
2023/05/07 01:08:39;;;;;;;;;;;;;;;13.85;100.00;101606.56;5025114;28;19924;-45
2023/05/07 01:11:06;;;;;;;;;;;;;;;13.87;100.00;101604.88;5038330;28;20303;-45
2023/05/07 01:13:32;;;;;;;;;;;;;;;13.86;100.00;101595.38;5024281;28;19960;-45
2023/05/07 01:15:57;;;;;;;;;;;;;;;13.86;100.00;101597.09;5025798;28;19967;-45
2023/05/07 01:18:22;;;;;;;;;;;;;;;13.88;100.00;101595.41;5022054;28;19929;-48
2023/05/07 01:20:48;;;;;;;;;;;;;;;13.88;100.00;101595.41;5025342;28;19917;-46
2023/05/07 01:23:13;;;;;;;;;;;;;;;13.87;100.00;101594.53;5025435;28;19917;-45
2023/05/07 01:25:39;;;;;;;;;;;;;;;13.87;100.00;101594.53;5024490;28;20307;-45
2023/05/07 01:28:05;;;;;;;;;;;;;;;13.85;100.00;101593.63;5021519;28;19925;-48
2023/05/07 01:30:31;;;;;;;;;;;;;;;13.86;100.00;101595.38;5020875;28;19925;-45
2023/05/07 01:33:10;;;;;;;;;;;;;;;13.85;100.00;101587.59;5025080;28;20295;-45
2023/05/07 01:35:38;;;;;;;;;;;;;;;13.85;100.00;101578.13;5024236;28;19942;-44
2023/05/07 01:38:05;;;;;;;;;;;;;;;13.84;100.00;101578.97;5019685;28;19959;-45
2023/05/07 01:40:31;;;;;;;;;;;;;;;13.84;100.00;101578.09;5024070;28;20028;-46
2023/05/07 01:42:56;;;;;;;;;;;;;;;13.82;100.00;101572.84;5020015;28;20455;-45
2023/05/07 01:45:22;;;;;;;;;;;;;;;13.82;100.00;101575.44;5019170;28;19948;-45
2023/05/07 01:47:47;;;;;;;;;;;;;;;13.82;100.00;101572.84;5023885;28;19929;-44
2023/05/07 01:50:15;;;;;;;;;;;;;;;13.83;100.00;101577.22;5024783;28;19929;-47
2023/05/07 01:52:41;;;;;;;;;;;;;;;13.82;100.00;101572.84;5022671;28;19921;-47
2023/05/07 01:55:06;;;;;;;;;;;;;;;13.82;100.00;101572.84;5023538;28;19925;-44
2023/05/07 01:57:31;;;;;;;;;;;;;;;13.81;100.00;101570.22;5020296;28;20411;-47
2023/05/07 01:59:57;;;;;;;;;;;;;;;13.79;100.00;101577.09;5021110;28;19921;-45
2023/05/07 02:02:22;;;;;;;;;;;;;;;13.80;100.00;101573.66;5024789;28;19923;-44
2023/05/07 02:04:47;;;;;;;;;;;;;;;13.80;100.00;101577.13;5023628;28;19925;-48
2023/05/07 02:07:12;;;;;;;;;;;;;;;13.79;100.00;101567.63;5021338;28;19922;-52
2023/05/07 02:09:38;;;;;;;;;;;;;;;13.81;100.00;101578.00;5024309;28;19930;-49
2023/05/07 02:12:03;;;;;;;;;;;;;;;13.81;100.00;101576.28;5021898;28;20402;-50
2023/05/07 02:14:28;;;;;;;;;;;;;;;13.79;100.00;101575.38;5022928;28;20311;-50
2023/05/07 02:16:54;;;;;;;;;;;;;;;13.79;100.00;101571.91;5024475;28;19966;-48
2023/05/07 02:19:20;;;;;;;;;;;;;;;13.77;100.00;101574.47;5012046;28;19925;-48
2023/05/07 02:21:46;;;;;;;;;;;;;;;13.77;100.00;101569.31;5024031;28;19936;-48
2023/05/07 02:24:11;;;;;;;;;;;;;;;13.77;100.00;101568.41;5020104;28;19926;-49
2023/05/07 02:26:36;;;;;;;;;;;;;;;13.77;100.00;101573.56;5019230;28;20012;-50
2023/05/07 02:29:02;;;;;;;;;;;;;;;13.75;100.00;101570.06;5024547;28;19933;-50
2023/05/07 02:31:27;;;;;;;;;;;;;;;13.75;100.00;101576.13;5020495;28;19964;-51
2023/05/07 02:33:52;;;;;;;;;;;;;;;13.74;100.00;101573.50;5023739;28;19925;-48
2023/05/07 02:36:17;;;;;;;;;;;;;;;13.75;100.00;101575.25;5020094;28;19925;-49
2023/05/07 02:38:43;;;;;;;;;;;;;;;13.76;100.00;101577.00;5018538;28;20016;-52
2023/05/07 02:41:08;;;;;;;;;;;;;;;13.76;100.00;101574.41;5022648;28;20492;-49
2023/05/07 02:43:33;;;;;;;;;;;;;;;13.75;100.00;101572.66;5022833;28;19956;-48
2023/05/07 02:46:01;;;;;;;;;;;;;;;13.73;100.00;101577.78;5024650;28;20036;-52
2023/05/07 02:48:27;;;;;;;;;;;;;;;13.75;100.00;101572.66;5022656;28;19921;-50
2023/05/07 02:50:52;;;;;;;;;;;;;;;13.75;100.00;101576.13;5023530;28;19982;-49
2023/05/07 02:53:17;;;;;;;;;;;;;;;13.76;100.00;101582.16;5021293;28;19921;-49
2023/05/07 02:55:42;;;;;;;;;;;;;;;13.77;100.00;101570.97;5021627;28;19925;-49
2023/05/07 02:58:07;;;;;;;;;;;;;;;13.75;100.00;101578.69;5023638;28;20015;-50
2023/05/07 03:00:33;;;;;;;;;;;;;;;13.77;100.00;101573.56;5020781;28;20020;-49
2023/05/07 03:02:58;;;;;;;;;;;;;;;13.76;100.00;101569.22;5019174;28;20307;-49
2023/05/07 03:05:23;;;;;;;;;;;;;;;13.76;100.00;101567.53;5023583;28;20024;-49
2023/05/07 03:07:48;;;;;;;;;;;;;;;13.75;100.00;101572.66;5021462;28;19973;-51
2023/05/07 03:10:14;;;;;;;;;;;;;;;13.76;100.00;101571.81;5024930;28;20388;-49
2023/05/07 03:12:39;;;;;;;;;;;;;;;13.76;100.00;101572.69;5028128;28;19997;-49
2023/05/07 03:15:05;;;;;;;;;;;;;;;13.76;100.00;101572.69;5024874;28;19922;-52
2023/05/07 03:17:30;;;;;;;;;;;;;;;13.75;100.00;101573.53;5029676;28;20012;-48
2023/05/07 03:19:55;;;;;;;;;;;;;;;13.76;100.00;101577.88;5028539;28;19969;-51
2023/05/07 03:22:21;;;;;;;;;;;;;;;13.75;100.00;101575.25;5029935;28;19946;-51
2023/05/07 03:24:46;;;;;;;;;;;;;;;13.73;100.00;101575.22;5026159;28;20451;-51
2023/05/07 03:27:11;;;;;;;;;;;;;;;13.73;100.00;101574.34;5030061;28;19929;-53
2023/05/07 03:29:36;;;;;;;;;;;;;;;13.73;100.00;101572.63;5027634;28;19917;-53
2023/05/07 03:32:02;;;;;;;;;;;;;;;13.72;100.00;101570.00;5035126;28;19925;-51
2023/05/07 03:34:27;;;;;;;;;;;;;;;13.72;100.00;101572.59;5028955;28;20360;-52
2023/05/07 03:36:52;;;;;;;;;;;;;;;13.69;100.00;101565.63;5029858;28;19928;-53
2023/05/07 03:39:17;;;;;;;;;;;;;;;13.69;100.00;101570.78;5029597;28;19921;-53
2023/05/07 03:41:43;;;;;;;;;;;;;;;13.68;100.00;101558.72;5025392;28;19929;-53
2023/05/07 03:44:08;;;;;;;;;;;;;;;13.67;100.00;101556.97;5029957;28;20424;-50
2023/05/07 03:46:33;;;;;;;;;;;;;;;13.67;100.00;101554.38;5027767;28;19925;-51
2023/05/07 03:48:59;;;;;;;;;;;;;;;13.65;100.00;101558.59;5029034;28;19925;-51
2023/05/07 03:51:25;;;;;;;;;;;;;;;13.64;100.00;101570.66;5028680;28;19945;-52
2023/05/07 03:53:52;;;;;;;;;;;;;;;13.64;100.00;101567.19;5028798;28;19938;-52
2023/05/07 03:56:18;;;;;;;;;;;;;;;13.63;100.00;101568.91;5025541;28;19936;-53
2023/05/07 03:58:43;;;;;;;;;;;;;;;13.63;100.00;101571.50;5029644;28;19921;-51
2023/05/07 04:01:08;;;;;;;;;;;;;;;13.63;100.00;101576.66;5030108;28;20276;-53
2023/05/07 04:03:33;;;;;;;;;;;;;;;13.64;100.00;101580.13;5028838;28;19961;-52
2023/05/07 04:05:59;;;;;;;;;;;;;;;13.63;100.00;101575.78;5029492;28;20032;-51
2023/05/07 04:08:26;;;;;;;;;;;;;;;13.63;100.00;101574.06;5029332;28;21431;-51
2023/05/07 04:10:54;;;;;;;;;;;;;;;13.63;100.00;101575.78;5029040;28;19921;-50
2023/05/07 04:13:20;;;;;;;;;;;;;;;13.64;100.00;101582.69;5029623;28;19978;-52
2023/05/07 04:15:46;;;;;;;;;;;;;;;13.65;100.00;101587.94;5025736;28;19964;-52
2023/05/07 04:18:11;;;;;;;;;;;;;;;13.63;100.00;101589.59;5029562;28;20391;-51
2023/05/07 04:20:36;;;;;;;;;;;;;;;13.65;100.00;101584.44;5028853;28;19921;-50
2023/05/07 04:23:02;;;;;;;;;;;;;;;13.66;100.00;101578.47;5022994;28;19936;-48
2023/05/07 04:25:27;;;;;;;;;;;;;;;13.65;100.00;101587.94;5025259;28;20388;-49
2023/05/07 04:27:52;;;;;;;;;;;;;;;13.68;100.00;101589.72;5022450;28;19982;-52
2023/05/07 04:30:18;;;;;;;;;;;;;;;13.68;100.00;101589.72;5022032;28;20368;-50
2023/05/07 04:32:44;;;;;;;;;;;;;;;13.69;100.00;101591.47;5024256;28;19925;-49
2023/05/07 04:35:09;;;;;;;;;;;;;;;13.71;100.00;101592.41;5026595;28;19921;-52
2023/05/07 04:37:35;;;;;;;;;;;;;;;13.69;100.00;101588.88;5025959;28;19928;-51
2023/05/07 04:40:00;;;;;;;;;;;;;;;13.70;100.00;101593.22;5021347;28;20012;-49
2023/05/07 04:42:25;;;;;;;;;;;;;;;13.71;100.00;101594.06;5026110;28;19921;-50
2023/05/07 04:44:52;;;;;;;;;;;;;;;13.69;100.00;101594.03;5021884;28;19926;-51
2023/05/07 04:47:17;;;;;;;;;;;;;;;13.69;100.00;101596.63;5025648;28;19917;-52
2023/05/07 04:49:43;;;;;;;;;;;;;;;13.71;100.00;101599.25;5024559;28;19921;-51
2023/05/07 04:52:08;;;;;;;;;;;;;;;13.72;100.00;101609.66;5023613;28;19925;-49
2023/05/07 04:54:33;;;;;;;;;;;;;;;13.73;100.00;101606.22;5024782;28;20021;-51
2023/05/07 04:56:58;;;;;;;;;;;;;;;13.75;100.00;101599.38;5044491;28;19929;-51
2023/05/07 04:59:24;;;;;;;;;;;;;;;13.76;100.00;101601.13;5025262;28;20462;-49
2023/05/07 05:01:49;;;;;;;;;;;;;;;13.78;100.00;101599.47;5024741;28;19936;-51
2023/05/07 05:04:14;;;;;;;;;;;;;;;13.81;100.00;101601.25;5023332;28;19925;-52
2023/05/07 05:06:39;;;;;;;;;;;;;;;13.83;100.00;101604.75;5023603;28;19960;-50
2023/05/07 05:09:05;;;;;;;;;;;;;;;13.85;100.00;101605.69;5021508;28;19944;-51
2023/05/07 05:11:30;;;;;;;;;;;;;;;13.87;100.00;101610.03;5025043;28;19925;-50
2023/05/07 05:13:56;;;;;;;;;;;;;;;13.90;100.00;101607.56;5023787;28;19961;-52
2023/05/07 05:16:21;;;;;;;;;;;;;;;13.93;100.00;101609.34;5026433;28;19921;-52
2023/05/07 05:18:46;;;;;;;;;;;;;;;13.97;100.00;101610.31;5025733;28;19978;-51
2023/05/07 05:21:11;;;;;;;;;;;;;;;14.01;100.00;101614.69;5025121;28;20141;-52
2023/05/07 05:23:37;;;;;;;;;;;;;;;14.03;100.00;101613.91;5021947;28;19928;-52
2023/05/07 05:26:02;;;;;;;;;;;;;;;14.07;100.00;101620.03;5024697;28;19924;-52
2023/05/07 05:28:27;;;;;;;;;;;;;;;14.10;100.00;101617.53;5024841;28;19936;-52
2023/05/07 05:30:53;;;;;;;;;;;;;;;14.16;100.00;101622.88;5024097;28;20015;-52
2023/05/07 05:33:18;;;;;;;;;;;;;;;14.20;100.00;101625.56;5023270;28;19917;-52
2023/05/07 05:35:43;;;;;;;;;;;;;;;14.25;100.00;101624.78;5025248;28;19930;-53
2023/05/07 05:38:08;;;;;;;;;;;;;;;14.29;100.00;101630.09;5022916;28;20759;-50
2023/05/07 05:40:34;;;;;;;;;;;;;;;14.31;100.00;101635.28;5022981;28;19989;-52
2023/05/07 05:42:59;;;;;;;;;;;;;;;14.29;100.00;101637.84;5026340;28;19940;-51
2023/05/07 05:45:24;;;;;;;;;;;;;;;14.30;100.00;101633.56;5025267;28;20444;-51
2023/05/07 05:47:50;;;;;;;;;;;;;;;14.30;100.00;101634.41;5024205;28;20333;-52
2023/05/07 05:50:15;;;;;;;;;;;;;;;14.30;100.00;101637.00;5035760;28;19932;-53
2023/05/07 05:52:40;;;;;;;;;;;;;;;14.36;100.00;101633.69;5024125;28;19959;-52
2023/05/07 05:55:06;;;;;;;;;;;;;;;14.38;100.00;101632.06;5025061;28;19933;-49
2023/05/07 05:57:31;;;;;;;;;;;;;;;14.40;100.00;101631.22;5023118;28;19921;-50
2023/05/07 05:59:56;;;;;;;;;;;;;;;14.45;100.00;101634.81;5016923;28;19924;-52
2023/05/07 06:02:22;;;;;;;;;;;;;;;14.47;100.00;101630.56;5019675;28;20008;-51
2023/05/07 06:04:47;;;;;;;;;;;;;;;14.52;100.00;101628.09;5024828;28;19961;-51
2023/05/07 06:07:12;;;;;;;;;;;;;;;14.57;100.00;101636.00;5024475;28;20243;-54
2023/05/07 06:09:37;;;;;;;;;;;;;;;14.61;100.00;101638.66;5022732;28;19986;-49
2023/05/07 06:12:03;;;;;;;;;;;;;;;14.68;100.00;101635.41;5023527;28;19925;-52
2023/05/07 06:14:28;;;;;;;;;;;;;;;14.77;100.00;101633.84;5022096;28;20272;-52
2023/05/07 06:16:53;;;;;;;;;;;;;;;14.78;100.00;101638.19;5022935;28;19943;-53
2023/05/07 06:19:22;;;;;;;;;;;;;;;14.84;100.00;101639.22;5022834;28;20387;-51
2023/05/07 06:21:48;;;;;;;;;;;;;;;14.92;100.00;101635.06;5025272;28;19956;-52
2023/05/07 06:24:13;;;;;;;;;;;;;;;15.01;100.00;101635.28;5021405;28;20377;-52
2023/05/07 06:26:38;;;;;;;;;;;;;;;15.10;100.00;101638.91;5022986;28;19925;-52
2023/05/07 06:29:04;;;;;;;;;;;;;;;15.14;100.00;101645.91;5019114;28;20398;-52
2023/05/07 06:31:30;;;;;;;;;;;;;;;15.19;100.00;101636.53;5038113;28;19929;-51
2023/05/07 06:33:56;;;;;;;;;;;;;;;15.22;100.00;101639.19;5019458;28;19924;-52
2023/05/07 06:36:21;;;;;;;;;;;;;;;15.23;100.00;101634.06;5019877;28;19929;-53
2023/05/07 06:38:46;;;;;;;;;;;;;;;15.28;100.00;101641.91;5018520;28;20003;-52
2023/05/07 06:41:12;;;;;;;;;;;;;;;15.31;100.00;101641.09;5023778;28;19953;-52
2023/05/07 06:43:37;;;;;;;;;;;;;;;15.38;100.00;101643.84;5023925;28;19921;-50
2023/05/07 06:46:02;;;;;;;;;;;;;;;15.42;100.00;101640.50;5023325;28;19932;-52
2023/05/07 06:48:27;;;;;;;;;;;;;;;15.45;100.00;101652.63;5019771;28;19929;-53
2023/05/07 06:50:55;;;;;;;;;;;;;;;15.47;100.00;101650.91;5026234;28;20392;-52
2023/05/07 06:53:20;;;;;;;;;;;;;;;15.51;100.00;101648.44;5022399;28;19983;-56
2023/05/07 06:55:45;;;;;;;;;;;;;;;15.52;100.00;101649.31;5021870;28;20393;-53
2023/05/07 06:58:10;;;;;;;;;;;;;;;15.51;100.00;101657.94;5023442;28;19925;-53
2023/05/07 07:00:36;;;;;;;;;;;;;;;15.54;100.00;101655.41;5022913;28;19928;-52
2023/05/07 07:03:01;;;;;;;;;;;;;;;15.55;100.00;101658.03;5023783;28;19921;-52
2023/05/07 07:05:26;;;;;;;;;;;;;;;15.57;100.00;101652.88;5024069;28;19945;-52
2023/05/07 07:07:54;;;;;;;;;;;;;;;15.60;100.00;101659.84;5023605;28;19921;-52
2023/05/07 07:10:20;;;;;;;;;;;;;;;15.60;100.00;101650.34;5023326;28;19929;-52
2023/05/07 07:12:45;;;;;;;;;;;;;;;15.64;100.00;101659.09;5022805;28;19924;-52
2023/05/07 07:15:11;;;;;;;;;;;;;;;15.61;100.00;101652.09;5021471;28;19921;-52
2023/05/07 07:17:36;;;;;;;;;;;;;;;15.61;100.00;101656.41;5022797;28;19930;-52
2023/05/07 07:20:02;;;;;;;;;;;;;;;15.60;100.00;101654.66;5020505;28;20062;-52
2023/05/07 07:22:28;;;;;;;;;;;;;;;15.63;100.00;101652.16;5017619;28;19982;-51
2023/05/07 07:24:53;;;;;;;;;;;;;;;15.71;100.00;101661.84;5020055;28;20395;-50
2023/05/07 07:27:18;;;;;;;;;;;;;;;15.79;100.00;101662.00;5034680;28;20295;-49
2023/05/07 07:29:43;;;;;;;;;;;;;;;15.84;100.00;101665.56;5022241;28;19931;-51
2023/05/07 07:32:08;;;;;;;;;;;;;;;15.92;100.00;101668.28;5023022;28;20013;-52
2023/05/07 07:34:34;;;;;;;;;;;;;;;16.00;100.00;101666.69;5023348;28;20120;-46
2023/05/07 07:37:05;;;;;;;;;;;;;;;16.05;100.00;101665.06;5020290;28;20845;-45
2023/05/07 07:39:30;;;;;;;;;;;;;;;16.08;100.00;101676.38;5018481;28;19936;-48
2023/05/07 07:41:56;;;;;;;;;;;;;;;16.09;100.00;101667.75;5022792;28;19933;-45
2023/05/07 07:44:21;;;;;;;;;;;;;;;16.11;100.00;101674.69;5022264;28;20391;-45
2023/05/07 07:46:46;;;;;;;;;;;;;;;15.95;100.00;101671.78;5018228;28;19940;-47
2023/05/07 07:49:11;;;;;;;;;;;;;;;15.87;100.00;101678.56;5023255;28;20004;-45
2023/05/07 07:51:37;;;;;;;;;;;;;;;15.98;100.00;101681.38;5022441;28;20283;-45
2023/05/07 07:54:02;;;;;;;;;;;;;;;16.09;100.00;101683.31;5019805;28;19928;-45
2023/05/07 07:56:28;;;;;;;;;;;;;;;16.20;100.00;101686.13;5024105;28;19937;-48
2023/05/07 07:58:53;;;;;;;;;;;;;;;16.34;100.00;101688.94;5027109;28;19928;-52
2023/05/07 08:01:18;;;;;;;;;;;;;;;16.45;100.00;101686.53;5029987;28;19950;-50
2023/05/07 08:03:43;;;;;;;;;;;;;;;16.57;100.00;101673.78;5020185;28;20024;-52
2023/05/07 08:06:09;;;;;;;;;;;;;;;16.69;100.00;101686.09;5024792;28;19969;-52
2023/05/07 08:08:34;;;;;;;;;;;;;;;16.76;100.00;101677.56;5027192;28;19943;-53
2023/05/07 08:10:59;;;;;;;;;;;;;;;16.78;100.00;101678.44;5022862;28;20414;-52
2023/05/07 08:13:24;;;;;;;;;;;;;;;16.86;100.00;101679.44;5041663;27;19954;-53
2023/05/07 08:15:50;;;;;;;;;;;;;;;16.93;100.00;101683.91;5027216;27;19940;-55
2023/05/07 08:18:15;;;;;;;;;;;;;;;17.07;100.00;101678.91;5023640;28;19925;-53
2023/05/07 08:20:41;;;;;;;;;;;;;;;17.24;100.00;101677.41;5026497;28;19924;-49
2023/05/07 08:23:07;;;;;;;;;;;;;;;17.46;100.00;101683.75;5024174;28;19925;-53
2023/05/07 08:25:33;;;;;;;;;;;;;;;17.56;99.93;101684.75;5025691;28;20383;-52
2023/05/07 08:27:58;;;;;;;;;;;;;;;17.65;99.01;101692.66;5023237;28;20028;-52
2023/05/07 08:30:23;;;;;;;;;;;;;;;17.73;97.94;101692.78;5025940;28;20283;-52
2023/05/07 08:32:48;;;;;;;;;;;;;;;17.70;98.21;101693.56;5022598;28;19967;-53
2023/05/07 08:35:14;;;;;;;;;;;;;;;17.71;97.83;101695.31;5026009;28;19925;-52
2023/05/07 08:37:39;;;;;;;;;;;;;;;17.69;96.83;101697.03;5025753;28;19967;-49
2023/05/07 08:40:05;;;;;;;;;;;;;;;17.73;97.96;101700.59;5023340;28;20374;-52
2023/05/07 08:42:32;;;;;;;;;;;;;;;17.67;96.34;101690.97;5023227;28;19921;-51
2023/05/07 08:44:59;;;;;;;;;;;;;;;17.68;96.64;101696.16;5024621;28;19928;-53
2023/05/07 08:47:29;;;;;;;;;;;;;;;17.84;96.25;101697.28;5024648;28;20009;-53
2023/05/07 08:49:55;;;;;;;;;;;;;;;17.97;95.73;101698.28;5026547;28;20045;-52
2023/05/07 08:52:20;;;;;;;;;;;;;;;18.12;95.47;101695.81;5025715;28;20015;-52
2023/05/07 08:54:45;;;;;;;;;;;;;;;18.10;93.64;101694.06;5025531;28;19923;-51
2023/05/07 08:57:11;;;;;;;;;;;;;;;18.06;92.38;101698.34;5023265;28;19925;-52
2023/05/07 08:59:36;;;;;;;;;;;;;;;18.09;94.04;101698.41;5023289;28;20051;-53
2023/05/07 09:02:02;;;;;;;;;;;;;;;18.09;94.31;101698.41;5025721;28;19932;-53
2023/05/07 09:04:27;;;;;;;;;;;;;;;18.23;94.90;101704.63;5020267;28;19929;-52
2023/05/07 09:06:52;;;;;;;;;;;;;;;18.37;93.90;101698.66;5024601;28;20387;-52
2023/05/07 09:09:20;;;;;;;;;;;;;;;18.46;93.95;101698.75;5021159;28;19921;-52
2023/05/07 09:11:46;;;;;;;;;;;;;;;18.45;92.48;101702.22;5014354;28;20569;-53
2023/05/07 09:14:11;;;;;;;;;;;;;;;18.47;91.98;101709.19;5023792;28;19933;-52
2023/05/07 09:16:36;;;;;;;;;;;;;;;18.47;91.39;101697.91;5024556;28;20015;-53
2023/05/07 09:19:01;;;;;;;;;;;;;;;18.41;91.57;101692.63;5025454;28;19928;-54
2023/05/07 09:21:27;;;;;;;;;;;;;;;18.44;92.93;101697.84;5022190;28;19921;-53
2023/05/07 09:23:53;;;;;;;;;;;;;;;18.53;92.10;101695.34;5022040;28;19926;-52
2023/05/07 09:26:20;;;;;;;;;;;;;;;18.61;91.97;101695.41;5027500;28;19951;-53
2023/05/07 09:28:46;;;;;;;;;;;;;;;18.72;91.94;101702.47;5025138;28;19918;-52
2023/05/07 09:31:11;;;;;;;;;;;;;;;18.80;89.36;101710.34;5024048;28;19932;-52
2023/05/07 09:33:37;;;;;;;;;;;;;;;18.74;91.39;101703.34;5023210;28;20277;-53
2023/05/07 09:36:07;;;;;;;;;;;;;;;18.78;92.21;101698.19;5024696;28;19975;-53
2023/05/07 09:38:32;;;;;;;;;;;;;;;18.87;91.12;101701.75;5020621;28;19917;-53
2023/05/07 09:41:04;;;;;;;;;;;;;;;18.94;90.79;101697.44;5021690;28;19928;-53
2023/05/07 09:43:32;;;;;;;;;;;;;;;19.01;89.91;101705.31;5024030;28;19931;-53
2023/05/07 09:45:58;;;;;;;;;;;;;;;19.05;91.30;101707.91;5023718;28;20392;-52
2023/05/07 09:48:25;;;;;;;;;;;;;;;19.09;90.11;101710.56;5022784;28;19994;-52
2023/05/07 09:50:52;;;;;;;;;;;;;;;19.17;91.22;101706.28;5024822;28;20272;-53
2023/05/07 09:53:17;;;;;;;;;;;;;;;19.23;90.35;101702.81;5031089;28;19925;-51
2023/05/07 09:55:43;;;;;;;;;;;;;;;19.22;89.94;101703.69;5024175;28;19921;-53
2023/05/07 09:58:09;;;;;;;;;;;;;;;19.18;89.63;101704.53;5024227;28;19966;-53
2023/05/07 10:00:35;;;;;;;;;;;;;;;19.19;90.65;101699.34;5023217;28;19917;-53
2023/05/07 10:03:01;;;;;;;;;;;;;;;19.24;89.33;101713.28;5023862;28;20372;-51
2023/05/07 10:05:27;;;;;;;;;;;;;;;19.28;89.05;101703.72;5023967;28;20501;-53
2023/05/07 10:07:52;;;;;;;;;;;;;;;19.34;90.00;101711.56;5025130;28;19921;-52
2023/05/07 10:10:18;;;;;;;;;;;;;;;19.42;90.74;101706.41;5024903;28;19932;-53
2023/05/07 10:12:43;;;;;;;;;;;;;;;19.59;89.67;101710.00;5022030;28;19952;-52
2023/05/07 10:15:10;;;;;;;;;;;;;;;19.49;84.52;101706.44;5013418;28;20532;-52
2023/05/07 10:17:36;;;;;;;;;;;;;;;19.41;86.82;101705.53;5024163;28;19921;-52
2023/05/07 10:20:02;;;;;;;;;;;;;;;19.39;86.93;101712.47;5022628;28;19917;-53
2023/05/07 10:22:28;;;;;;;;;;;;;;;19.43;85.99;101708.16;5023598;28;19948;-53
2023/05/07 10:24:56;;;;;;;;;;;;;;;19.45;87.80;101703.81;5018853;28;19925;-54
2023/05/07 10:27:22;;;;;;;;;;;;;;;19.47;87.25;101699.47;5021943;28;19921;-53
2023/05/07 10:29:47;;;;;;;;;;;;;;;19.51;86.88;101701.22;5023305;28;19921;-52
2023/05/07 10:32:31;;;;;;;;;;;;;;;19.56;85.83;101707.34;5024695;28;19917;-52
2023/05/07 10:34:58;;;;;;;;;;;;;;;19.62;85.14;101712.63;5017278;28;19924;-52
2023/05/07 10:37:24;;;;;;;;;;;;;;;19.66;85.66;101714.41;5023091;28;20291;-53
2023/05/07 10:39:49;;;;;;;;;;;;;;;19.72;85.68;101713.53;5019319;28;19925;-53
2023/05/07 10:42:14;;;;;;;;;;;;;;;19.72;84.48;101721.38;5022986;28;19995;-52
2023/05/07 10:44:40;;;;;;;;;;;;;;;19.59;84.01;101709.13;5024083;28;19929;-52
2023/05/07 10:47:09;;;;;;;;;;;;;;;19.67;83.16;101717.88;5017308;28;19921;-53
2023/05/07 10:49:43;;;;;;;;;;;;;;;19.70;83.89;101718.72;5022048;28;19986;-53
2023/05/07 10:52:13;;;;;;;;;;;;;;;19.77;84.11;101710.06;5023629;28;19917;-53
2023/05/07 10:54:39;;;;;;;;;;;;;;;19.82;82.91;101702.25;5023148;28;20376;-50
2023/05/07 10:57:23;;;;;;;;;;;;;;;19.93;84.28;101707.50;5018584;28;19974;-53
2023/05/07 10:59:48;;;;;;;;;;;;;;;19.98;82.76;101704.06;5021921;28;19945;-51
2023/05/07 11:02:15;;;;;;;;;;;;;;;20.09;82.74;101704.97;5024112;28;20340;-53
2023/05/07 11:04:41;;;;;;;;;;;;;;;20.21;80.87;101701.50;5017653;28;20870;-53
2023/05/07 11:07:06;;;;;;;;;;;;;;;20.23;83.41;101699.75;5023820;28;19944;-52
2023/05/07 11:09:51;;;;;;;;;;;;;;;20.28;82.89;101707.59;5016062;28;19917;-54
2023/05/07 11:12:16;;;;;;;;;;;;;;;20.35;81.96;101707.59;5021640;28;20013;-51
2023/05/07 11:14:44;;;;;;;;;;;;;;;20.46;81.09;101705.03;5022452;28;19964;-55
2023/05/07 11:17:10;;;;;;;;;;;;;;;20.60;81.58;101702.41;5023176;28;19917;-53
2023/05/07 11:19:48;;;;;;;;;;;;;;;20.76;80.30;101703.31;5022730;28;19928;-52
2023/05/07 11:22:28;;;;;;;;;;;;;;;20.85;80.49;101704.16;5022489;28;19925;-52
2023/05/07 11:24:54;;;;;;;;;;;;;;;20.77;76.53;101713.75;5020615;28;19936;-52
2023/05/07 11:27:23;;;;;;;;;;;;;;;20.74;76.70;101712.88;5017754;28;19917;-53
2023/05/07 11:29:50;;;;;;;;;;;;;;;20.71;79.27;101711.13;5023019;28;20296;-53
2023/05/07 11:32:15;;;;;;;;;;;;;;;20.77;79.09;101711.13;5026407;28;19928;-53
2023/05/07 11:34:40;;;;;;;;;;;;;;;20.81;77.97;101712.88;5022277;28;19929;-52
2023/05/07 11:37:06;;;;;;;;;;;;;;;20.80;78.69;101710.25;5026186;28;19925;-53
2023/05/07 11:39:33;;;;;;;;;;;;;;;20.95;77.22;101722.44;5027050;28;20059;-53
2023/05/07 11:41:58;;;;;;;;;;;;;;;21.05;77.50;101718.94;5020983;28;20341;-53
2023/05/07 11:44:24;;;;;;;;;;;;;;;21.10;75.88;101712.81;5026936;28;19921;-53
2023/05/07 11:46:49;;;;;;;;;;;;;;;21.19;74.60;101714.56;5023236;28;19925;-52
2023/05/07 11:49:15;;;;;;;;;;;;;;;21.31;73.66;101711.09;5026977;28;20378;-52
2023/05/07 11:51:41;;;;;;;;;;;;;;;21.34;72.50;101721.53;5026404;28;20045;-53
2023/05/07 11:54:08;;;;;;;;;;;;;;;21.35;74.25;101702.31;5025282;28;19921;-52
2023/05/07 11:56:34;;;;;;;;;;;;;;;21.38;74.23;101713.66;5020830;28;19925;-52
2023/05/07 11:58:59;;;;;;;;;;;;;;;21.45;73.95;101711.91;5026966;28;19940;-53
2023/05/07 12:01:24;;;;;;;;;;;;;;;21.50;72.40;101706.66;5024023;28;19929;-52
2023/05/07 12:03:50;;;;;;;;;;;;;;;21.55;74.54;101713.63;5023315;28;19921;-53
2023/05/07 12:06:15;;;;;;;;;;;;;;;21.59;74.80;101711.84;5025268;28;19925;-53
2023/05/07 12:08:41;;;;;;;;;;;;;;;21.58;73.87;101705.75;5022016;28;19936;-53
2023/05/07 12:11:08;;;;;;;;;;;;;;;21.66;72.96;101711.84;5024272;28;19961;-53
2023/05/07 12:13:34;;;;;;;;;;;;;;;21.80;73.49;101709.16;5026515;28;20418;-53
2023/05/07 12:15:59;;;;;;;;;;;;;;;21.80;71.06;101708.28;5025694;28;19917;-53
2023/05/07 12:18:25;;;;;;;;;;;;;;;21.79;74.03;101704.78;5023372;28;19921;-53
2023/05/07 12:20:50;;;;;;;;;;;;;;;21.76;72.36;101707.41;5026188;28;19921;-52
2023/05/07 12:23:16;;;;;;;;;;;;;;;21.74;70.43;101711.78;5023260;28;20416;-52